sensor_id;sensor_type;location;lat;lon;timestamp;P1;durP1;ratioP1;P2;durP2;ratioP2
42666;SDS011;28280;49.646;14.130;2023-10-19T00:08:35;5.15;;;3.90;;
42666;SDS011;28280;49.646;14.130;2023-10-19T00:19:03;5.60;;;4.00;;
42666;SDS011;28280;49.646;14.130;2023-10-19T00:29:24;5.45;;;3.55;;
42666;SDS011;28280;49.646;14.130;2023-10-19T00:39:52;5.70;;;3.75;;
42666;SDS011;28280;49.646;14.130;2023-10-19T00:50:15;5.32;;;3.60;;
42666;SDS011;28280;49.646;14.130;2023-10-19T01:00:38;4.95;;;3.20;;
42666;SDS011;28280;49.646;14.130;2023-10-19T01:11:04;4.73;;;3.33;;
42666;SDS011;28280;49.646;14.130;2023-10-19T01:21:26;6.00;;;3.75;;
42666;SDS011;28280;49.646;14.130;2023-10-19T01:31:59;4.55;;;3.30;;
42666;SDS011;28280;49.646;14.130;2023-10-19T01:42:33;4.30;;;3.50;;
42666;SDS011;28280;49.646;14.130;2023-10-19T01:52:54;5.47;;;3.58;;
42666;SDS011;28280;49.646;14.130;2023-10-19T02:03:16;5.22;;;3.67;;
42666;SDS011;28280;49.646;14.130;2023-10-19T02:13:38;4.80;;;3.05;;
42666;SDS011;28280;49.646;14.130;2023-10-19T02:24:00;5.22;;;3.38;;
42666;SDS011;28280;49.646;14.130;2023-10-19T02:34:21;4.90;;;3.15;;
42666;SDS011;28280;49.646;14.130;2023-10-19T02:44:44;5.55;;;3.25;;
42666;SDS011;28280;49.646;14.130;2023-10-19T02:55:06;5.60;;;3.47;;
42666;SDS011;28280;49.646;14.130;2023-10-19T03:05:28;5.55;;;3.35;;
42666;SDS011;28280;49.646;14.130;2023-10-19T03:15:50;4.72;;;3.03;;
42666;SDS011;28280;49.646;14.130;2023-10-19T03:26:15;4.43;;;3.13;;
42666;SDS011;28280;49.646;14.130;2023-10-19T03:36:51;4.70;;;3.67;;
42666;SDS011;28280;49.646;14.130;2023-10-19T03:47:14;5.10;;;3.50;;
42666;SDS011;28280;49.646;14.130;2023-10-19T03:57:40;11.50;;;4.17;;
42666;SDS011;28280;49.646;14.130;2023-10-19T04:08:08;5.30;;;3.83;;
42666;SDS011;28280;49.646;14.130;2023-10-19T04:18:40;4.70;;;3.70;;
42666;SDS011;28280;49.646;14.130;2023-10-19T04:29:04;4.72;;;3.60;;
42666;SDS011;28280;49.646;14.130;2023-10-19T04:39:32;5.57;;;3.40;;
42666;SDS011;28280;49.646;14.130;2023-10-19T04:49:55;4.88;;;3.83;;
42666;SDS011;28280;49.646;14.130;2023-10-19T05:00:17;4.40;;;3.33;;
42666;SDS011;28280;49.646;14.130;2023-10-19T05:10:41;5.45;;;3.47;;
42666;SDS011;28280;49.646;14.130;2023-10-19T05:21:03;6.50;;;4.20;;
42666;SDS011;28280;49.646;14.130;2023-10-19T05:31:25;5.75;;;3.90;;
42666;SDS011;28280;49.646;14.130;2023-10-19T05:41:46;7.15;;;3.88;;
42666;SDS011;28280;49.646;14.130;2023-10-19T05:52:08;5.80;;;4.28;;
42666;SDS011;28280;49.646;14.130;2023-10-19T06:02:29;5.47;;;4.13;;
42666;SDS011;28280;49.646;14.130;2023-10-19T06:12:53;6.93;;;3.78;;
42666;SDS011;28280;49.646;14.130;2023-10-19T06:23:15;8.32;;;4.65;;
42666;SDS011;28280;49.646;14.130;2023-10-19T06:33:36;6.72;;;3.80;;
42666;SDS011;28280;49.646;14.130;2023-10-19T06:44:00;4.50;;;3.90;;
42666;SDS011;28280;49.646;14.130;2023-10-19T06:54:22;6.22;;;4.10;;
42666;SDS011;28280;49.646;14.130;2023-10-19T07:04:43;6.22;;;4.45;;
42666;SDS011;28280;49.646;14.130;2023-10-19T07:15:05;7.68;;;5.05;;
42666;SDS011;28280;49.646;14.130;2023-10-19T07:25:30;8.18;;;5.28;;
42666;SDS011;28280;49.646;14.130;2023-10-19T07:35:52;6.65;;;4.68;;
42666;SDS011;28280;49.646;14.130;2023-10-19T07:46:15;8.40;;;5.20;;
42666;SDS011;28280;49.646;14.130;2023-10-19T07:56:37;7.75;;;4.85;;
42666;SDS011;28280;49.646;14.130;2023-10-19T08:06:58;8.65;;;5.35;;
42666;SDS011;28280;49.646;14.130;2023-10-19T08:17:20;6.93;;;4.95;;
42666;SDS011;28280;49.646;14.130;2023-10-19T08:27:42;9.82;;;6.32;;
42666;SDS011;28280;49.646;14.130;2023-10-19T08:38:08;6.85;;;5.07;;
42666;SDS011;28280;49.646;14.130;2023-10-19T08:48:33;9.18;;;5.90;;
42666;SDS011;28280;49.646;14.130;2023-10-19T08:58:56;7.47;;;5.50;;
42666;SDS011;28280;49.646;14.130;2023-10-19T09:09:17;7.05;;;5.28;;
42666;SDS011;28280;49.646;14.130;2023-10-19T09:19:41;8.63;;;5.80;;
42666;SDS011;28280;49.646;14.130;2023-10-19T09:30:03;9.48;;;5.95;;
42666;SDS011;28280;49.646;14.130;2023-10-19T09:40:28;8.50;;;6.28;;
42666;SDS011;28280;49.646;14.130;2023-10-19T09:50:51;8.68;;;5.93;;
42666;SDS011;28280;49.646;14.130;2023-10-19T10:01:16;7.90;;;5.70;;
42666;SDS011;28280;49.646;14.130;2023-10-19T10:11:40;12.68;;;7.07;;
42666;SDS011;28280;49.646;14.130;2023-10-19T10:22:09;9.48;;;6.75;;
42666;SDS011;28280;49.646;14.130;2023-10-19T10:32:49;10.65;;;7.45;;
42666;SDS011;28280;49.646;14.130;2023-10-19T10:43:13;11.10;;;7.18;;
42666;SDS011;28280;49.646;14.130;2023-10-19T10:53:36;9.48;;;6.55;;
42666;SDS011;28280;49.646;14.130;2023-10-19T11:04:09;13.53;;;7.93;;
42666;SDS011;28280;49.646;14.130;2023-10-19T11:14:37;11.30;;;7.57;;
42666;SDS011;28280;49.646;14.130;2023-10-19T11:25:16;11.18;;;7.85;;
42666;SDS011;28280;49.646;14.130;2023-10-19T11:35:38;9.98;;;7.68;;
42666;SDS011;28280;49.646;14.130;2023-10-19T11:45:59;9.88;;;7.95;;
42666;SDS011;28280;49.646;14.130;2023-10-19T11:56:21;11.52;;;7.32;;
42666;SDS011;28280;49.646;14.130;2023-10-19T12:06:43;11.02;;;8.40;;
42666;SDS011;28280;49.646;14.130;2023-10-19T12:17:06;11.50;;;7.45;;
42666;SDS011;28280;49.646;14.130;2023-10-19T12:27:32;12.07;;;7.38;;
42666;SDS011;28280;49.646;14.130;2023-10-19T12:37:53;9.65;;;7.55;;
42666;SDS011;28280;49.646;14.130;2023-10-19T12:48:17;9.25;;;7.25;;
42666;SDS011;28280;49.646;14.130;2023-10-19T12:58:38;9.98;;;7.32;;
42666;SDS011;28280;49.646;14.130;2023-10-19T13:08:59;11.82;;;7.93;;
42666;SDS011;28280;49.646;14.130;2023-10-19T13:19:21;10.57;;;7.20;;
42666;SDS011;28280;49.646;14.130;2023-10-19T13:29:46;10.45;;;7.50;;
42666;SDS011;28280;49.646;14.130;2023-10-19T13:40:08;10.60;;;7.05;;
42666;SDS011;28280;49.646;14.130;2023-10-19T13:50:32;9.27;;;7.07;;
42666;SDS011;28280;49.646;14.130;2023-10-19T14:00:54;11.02;;;7.38;;
42666;SDS011;28280;49.646;14.130;2023-10-19T14:11:15;9.27;;;6.93;;
42666;SDS011;28280;49.646;14.130;2023-10-19T14:21:37;10.23;;;7.78;;
42666;SDS011;28280;49.646;14.130;2023-10-19T14:32:01;10.68;;;7.07;;
42666;SDS011;28280;49.646;14.130;2023-10-19T14:42:24;9.95;;;7.07;;
42666;SDS011;28280;49.646;14.130;2023-10-19T14:52:46;10.65;;;7.45;;
42666;SDS011;28280;49.646;14.130;2023-10-19T15:03:08;9.00;;;6.65;;
42666;SDS011;28280;49.646;14.130;2023-10-19T15:13:29;10.88;;;7.32;;
42666;SDS011;28280;49.646;14.130;2023-10-19T15:23:51;11.57;;;7.30;;
42666;SDS011;28280;49.646;14.130;2023-10-19T15:34:13;11.07;;;7.60;;
42666;SDS011;28280;49.646;14.130;2023-10-19T15:44:40;9.63;;;7.43;;
42666;SDS011;28280;49.646;14.130;2023-10-19T15:55:02;11.75;;;7.65;;
42666;SDS011;28280;49.646;14.130;2023-10-19T16:05:23;11.57;;;7.90;;
42666;SDS011;28280;49.646;14.130;2023-10-19T16:15:45;11.82;;;8.00;;
42666;SDS011;28280;49.646;14.130;2023-10-19T16:26:06;10.50;;;7.13;;
42666;SDS011;28280;49.646;14.130;2023-10-19T16:36:27;8.65;;;6.53;;
42666;SDS011;28280;49.646;14.130;2023-10-19T16:46:49;10.02;;;7.32;;
42666;SDS011;28280;49.646;14.130;2023-10-19T16:57:10;10.32;;;7.13;;
42666;SDS011;28280;49.646;14.130;2023-10-19T17:07:32;9.23;;;6.72;;
42666;SDS011;28280;49.646;14.130;2023-10-19T17:17:54;10.40;;;7.40;;
42666;SDS011;28280;49.646;14.130;2023-10-19T17:28:15;11.30;;;7.65;;
42666;SDS011;28280;49.646;14.130;2023-10-19T17:38:37;9.77;;;7.32;;
42666;SDS011;28280;49.646;14.130;2023-10-19T17:48:58;10.57;;;7.55;;
42666;SDS011;28280;49.646;14.130;2023-10-19T17:59:20;10.30;;;7.70;;
42666;SDS011;28280;49.646;14.130;2023-10-19T18:09:42;10.20;;;7.70;;
42666;SDS011;28280;49.646;14.130;2023-10-19T18:20:05;10.10;;;7.65;;
42666;SDS011;28280;49.646;14.130;2023-10-19T18:30:28;9.13;;;6.97;;
42666;SDS011;28280;49.646;14.130;2023-10-19T18:40:57;11.35;;;7.18;;
42666;SDS011;28280;49.646;14.130;2023-10-19T18:51:20;13.60;;;7.45;;
42666;SDS011;28280;49.646;14.130;2023-10-19T19:01:42;10.20;;;6.97;;
42666;SDS011;28280;49.646;14.130;2023-10-19T19:12:03;10.93;;;7.43;;
42666;SDS011;28280;49.646;14.130;2023-10-19T19:22:25;10.80;;;7.45;;
42666;SDS011;28280;49.646;14.130;2023-10-19T19:32:46;11.70;;;7.38;;
42666;SDS011;28280;49.646;14.130;2023-10-19T19:43:08;10.77;;;7.72;;
42666;SDS011;28280;49.646;14.130;2023-10-19T19:53:29;11.93;;;7.68;;
42666;SDS011;28280;49.646;14.130;2023-10-19T20:03:51;13.57;;;8.32;;
42666;SDS011;28280;49.646;14.130;2023-10-19T20:14:13;11.85;;;7.90;;
42666;SDS011;28280;49.646;14.130;2023-10-19T20:24:34;11.90;;;8.15;;
42666;SDS011;28280;49.646;14.130;2023-10-19T20:34:55;11.85;;;8.18;;
42666;SDS011;28280;49.646;14.130;2023-10-19T20:45:17;13.70;;;9.10;;
42666;SDS011;28280;49.646;14.130;2023-10-19T20:55:38;12.48;;;8.48;;
42666;SDS011;28280;49.646;14.130;2023-10-19T21:06:12;14.43;;;9.20;;
42666;SDS011;28280;49.646;14.130;2023-10-19T21:16:33;13.73;;;8.25;;
42666;SDS011;28280;49.646;14.130;2023-10-19T21:26:55;13.40;;;8.73;;
42666;SDS011;28280;49.646;14.130;2023-10-19T21:37:17;11.50;;;7.95;;
42666;SDS011;28280;49.646;14.130;2023-10-19T21:47:39;15.32;;;9.40;;
42666;SDS011;28280;49.646;14.130;2023-10-19T21:58:01;14.43;;;9.32;;
42666;SDS011;28280;49.646;14.130;2023-10-19T22:08:22;13.55;;;9.57;;
42666;SDS011;28280;49.646;14.130;2023-10-19T22:18:44;13.13;;;8.80;;
42666;SDS011;28280;49.646;14.130;2023-10-19T22:29:05;13.80;;;8.95;;
42666;SDS011;28280;49.646;14.130;2023-10-19T22:39:27;14.43;;;9.85;;
42666;SDS011;28280;49.646;14.130;2023-10-19T22:49:49;14.23;;;8.95;;
42666;SDS011;28280;49.646;14.130;2023-10-19T23:00:10;13.45;;;9.90;;
42666;SDS011;28280;49.646;14.130;2023-10-19T23:10:35;13.82;;;9.95;;
42666;SDS011;28280;49.646;14.130;2023-10-19T23:20:56;12.93;;;9.93;;
42666;SDS011;28280;49.646;14.130;2023-10-19T23:31:20;13.85;;;9.55;;
42666;SDS011;28280;49.646;14.130;2023-10-19T23:41:49;12.27;;;9.40;;
42666;SDS011;28280;49.646;14.130;2023-10-19T23:52:11;13.52;;;9.88;;
